TMB weather

Kendall-Tamiami Executive Airport
Miami, Florida, United States

Public forecast

Using degrees Fahrenheit for public forecast. Weather courtesy of forecast.io.

METAR (pilot weather report)

Retrieved 2019/07/23 16:53 UTC (23 minutes ago):

KTMB 231653Z VRB04KT 10SM BKN043 BKN055 33/23 A2999 RMK AO2 SLP155 T03280228

TAF (pilot weather forecast)

Retrieved 2019/07/23 12:40 UTC (5 hours ago):

TAF KTMB 231138Z 2312/2412 VRB03KT P6SM FEW025 BKN250 FM231500 23007KT P6SM SCT025 SCT250 FM231900 24009KT P6SM VCTS SCT025CB BKN050 BKN250 FM240000 VRB03KT P6SM SCT025 BKN100 BKN250